createdAt,value
2017-01-28T00:00:02.870Z,3.2
2017-01-28T00:05:03.225Z,3.2
2017-01-28T00:10:02.978Z,3.2
2017-01-28T00:15:02.792Z,3.2
2017-01-28T00:20:02.503Z,3.2
2017-01-28T00:25:03.350Z,3.2
2017-01-28T00:30:03.166Z,3.0
2017-01-28T00:35:02.917Z,3.0
2017-01-28T00:40:02.841Z,2.9
2017-01-28T00:45:02.504Z,2.7
2017-01-28T00:50:03.299Z,2.7
2017-01-28T00:55:02.967Z,2.7
2017-01-28T01:00:02.703Z,2.9
2017-01-28T01:05:02.946Z,2.7
2017-01-28T01:10:02.589Z,2.5
2017-01-28T01:15:03.368Z,2.4
2017-01-28T01:20:03.329Z,2.4
2017-01-28T01:25:03.200Z,2.7
2017-01-28T01:30:02.971Z,2.9
2017-01-28T01:35:02.748Z,3.0
2017-01-28T01:40:02.580Z,3.0
2017-01-28T01:45:03.257Z,3.0
2017-01-28T01:50:02.976Z,3.0
2017-01-28T01:55:02.773Z,3.0
2017-01-28T02:00:03.358Z,3.0
2017-01-28T02:05:03.083Z,3.0
2017-01-28T02:10:03.124Z,2.4
2017-01-28T02:15:03.071Z,2.5
2017-01-28T02:20:03.011Z,2.5
2017-01-28T02:25:02.938Z,2.5
2017-01-28T02:30:02.785Z,2.4
2017-01-28T02:35:03.397Z,2.4
2017-01-28T02:40:03.071Z,2.0
2017-01-28T02:45:02.966Z,1.8
2017-01-28T02:50:02.740Z,2.0
2017-01-28T02:55:02.449Z,2.0
2017-01-28T03:00:03.020Z,2.0
2017-01-28T03:05:02.738Z,2.4
2017-01-28T03:10:02.484Z,2.9
2017-01-28T03:15:03.252Z,2.9
2017-01-28T03:20:02.947Z,2.9
2017-01-28T03:25:02.611Z,2.9
2017-01-28T03:30:03.348Z,2.7
2017-01-28T03:35:03.151Z,2.5
2017-01-28T03:40:02.860Z,2.4
2017-01-28T03:45:02.666Z,2.4
2017-01-28T03:50:03.361Z,2.4
2017-01-28T03:55:03.256Z,2.2
2017-01-28T04:00:03.080Z,2.0
2017-01-28T04:05:03.005Z,2.2
2017-01-28T04:10:02.892Z,2.2
2017-01-28T04:15:02.681Z,2.0
2017-01-28T04:20:02.465Z,1.8
2017-01-28T04:25:03.206Z,1.8
2017-01-28T04:30:03.126Z,1.8
2017-01-28T04:35:03.059Z,1.7
2017-01-28T04:40:02.764Z,1.7
2017-01-28T04:45:02.697Z,1.7
2017-01-28T04:50:02.533Z,1.6
2017-01-28T04:55:03.342Z,1.7
2017-01-28T05:00:03.056Z,1.6
2017-01-28T05:05:02.779Z,1.7
2017-01-28T05:10:02.567Z,1.6
2017-01-28T05:15:02.493Z,1.2
2017-01-28T05:20:03.276Z,1.2
2017-01-28T05:25:03.160Z,1.2
2017-01-28T05:30:02.712Z,1.2
2017-01-28T05:35:03.401Z,1.2
2017-01-28T05:40:03.263Z,1.3
2017-01-28T05:45:03.023Z,1.2
2017-01-28T05:50:02.854Z,1.2
2017-01-28T05:55:02.567Z,1.3
2017-01-28T06:00:02.566Z,1.3
2017-01-28T06:05:03.340Z,1.3
2017-01-28T06:10:03.121Z,1.3
2017-01-28T06:15:02.798Z,1.3
2017-01-28T06:20:02.444Z,1.6
2017-01-28T06:25:03.073Z,1.6
2017-01-28T06:30:02.868Z,1.7
2017-01-28T06:35:02.650Z,1.8
2017-01-28T06:40:02.435Z,1.8
2017-01-28T06:45:03.307Z,1.8
2017-01-28T06:50:02.858Z,1.7
2017-01-28T06:55:02.445Z,1.7
2017-01-28T07:00:03.074Z,1.6
2017-01-28T07:05:02.801Z,1.6
2017-01-28T07:10:02.505Z,1.6
2017-01-28T07:15:02.467Z,1.6
2017-01-28T07:20:02.452Z,1.7
2017-01-28T07:25:03.257Z,1.7
2017-01-28T07:30:02.940Z,1.8
2017-01-28T07:35:02.734Z,2.0
2017-01-28T07:40:02.523Z,2.0
2017-01-28T07:45:03.284Z,2.0
2017-01-28T07:50:03.003Z,2.0
2017-01-28T07:55:02.794Z,2.0
2017-01-28T08:00:02.580Z,1.8
2017-01-28T08:05:03.357Z,1.8
2017-01-28T08:10:03.010Z,2.0
2017-01-28T08:15:02.719Z,2.0
2017-01-28T08:20:02.540Z,2.0
2017-01-28T08:25:02.528Z,2.5
2017-01-28T08:30:03.434Z,2.7
2017-01-28T08:35:03.356Z,3.0
2017-01-28T08:40:03.249Z,3.2
2017-01-28T08:45:02.819Z,3.5
2017-01-28T08:50:02.931Z,3.7
2017-01-28T08:55:02.792Z,4.0
2017-01-28T09:00:02.433Z,4.3
2017-01-28T09:05:02.997Z,4.3
2017-01-28T09:10:02.796Z,4.5
2017-01-28T09:15:02.583Z,5.0
2017-01-28T09:20:03.273Z,5.0
2017-01-28T09:25:03.203Z,5.5
2017-01-28T09:30:03.056Z,5.9
2017-01-28T09:35:02.653Z,6.1
2017-01-28T09:40:03.400Z,6.5
2017-01-28T09:45:03.144Z,6.6
2017-01-28T09:50:02.820Z,6.6
2017-01-28T09:55:02.416Z,6.9
2017-01-28T10:00:03.001Z,7.1
2017-01-28T10:05:02.930Z,7.1
2017-01-28T10:10:02.693Z,7.5
2017-01-28T10:15:02.548Z,7.9
2017-01-28T10:20:02.568Z,7.9
2017-01-28T10:25:03.370Z,8.0
2017-01-28T10:30:03.330Z,7.9
2017-01-28T10:35:02.970Z,8.3
2017-01-28T10:40:02.724Z,8.5
2017-01-28T10:45:02.757Z,8.3
2017-01-28T10:50:03.017Z,8.3
2017-01-28T10:55:02.406Z,8.0
2017-01-28T11:00:03.132Z,8.3
2017-01-28T11:05:03.234Z,8.5
2017-01-28T11:10:02.472Z,8.3
2017-01-28T11:15:02.542Z,8.5
2017-01-28T11:20:03.038Z,8.1
2017-01-28T11:25:03.131Z,8.1
2017-01-28T11:30:02.561Z,8.0
2017-01-28T11:35:02.962Z,8.0
2017-01-28T11:40:03.087Z,8.0
2017-01-28T11:45:03.262Z,8.0
2017-01-28T11:50:03.261Z,8.1
2017-01-28T11:55:02.656Z,8.3
2017-01-28T12:00:02.415Z,8.3
2017-01-28T12:05:02.748Z,8.5
2017-01-28T12:10:03.209Z,8.1
2017-01-28T12:15:03.199Z,8.0
2017-01-28T12:20:03.288Z,8.0
2017-01-28T12:25:03.256Z,8.1
2017-01-28T12:30:02.746Z,8.3
2017-01-28T12:35:02.554Z,8.5
2017-01-28T12:40:03.240Z,8.8
2017-01-28T12:45:02.933Z,9.0
2017-01-28T12:50:03.147Z,9.3
2017-01-28T12:55:03.101Z,8.8
2017-01-28T13:00:02.602Z,8.5
2017-01-28T13:05:02.447Z,8.3
2017-01-28T13:10:03.274Z,8.3
2017-01-28T13:15:02.418Z,8.5
2017-01-28T13:20:03.388Z,8.5
2017-01-28T13:25:02.564Z,8.5
2017-01-28T13:30:03.265Z,8.5
2017-01-28T13:35:03.029Z,8.1
2017-01-28T13:40:02.794Z,8.3
2017-01-28T13:45:02.512Z,8.1
2017-01-28T13:50:03.115Z,8.1
2017-01-28T13:55:02.970Z,8.1
2017-01-28T14:00:02.951Z,8.0
2017-01-28T14:05:02.994Z,8.1
2017-01-28T14:10:03.089Z,8.1
2017-01-28T14:15:02.647Z,8.3
2017-01-28T14:20:02.842Z,8.3
2017-01-28T14:25:02.646Z,8.3
2017-01-28T14:30:03.329Z,8.5
2017-01-28T14:35:02.500Z,8.6
2017-01-28T14:40:02.973Z,8.8
2017-01-28T14:45:02.821Z,8.8
2017-01-28T14:50:03.124Z,8.6
2017-01-28T14:55:02.598Z,8.6
2017-01-28T15:00:02.606Z,8.6
2017-01-28T15:05:02.408Z,8.5
2017-01-28T15:10:03.013Z,8.5
2017-01-28T15:15:03.339Z,8.5
2017-01-28T15:20:03.353Z,8.5
2017-01-28T15:25:02.629Z,8.3
2017-01-28T15:30:03.249Z,8.1
2017-01-28T15:35:02.602Z,8.1
2017-01-28T15:40:02.772Z,8.0
2017-01-28T15:45:02.717Z,7.9
2017-01-28T15:50:02.664Z,7.9
2017-01-28T15:55:02.773Z,7.6
2017-01-28T16:00:03.217Z,7.5
2017-01-28T16:05:03.340Z,7.1
2017-01-28T16:10:02.548Z,7.0
2017-01-28T16:15:02.623Z,7.0
2017-01-28T16:20:02.813Z,6.9
2017-01-28T16:25:03.434Z,6.6
2017-01-28T16:30:03.238Z,6.6
2017-01-28T16:35:03.181Z,6.5
2017-01-28T16:40:03.124Z,6.4
2017-01-28T16:45:02.751Z,6.4
2017-01-28T16:50:02.408Z,6.5
2017-01-28T16:55:03.191Z,6.4
2017-01-28T17:00:02.880Z,6.4
2017-01-28T17:05:02.597Z,6.4
2017-01-28T17:10:03.144Z,6.4
2017-01-28T17:15:02.892Z,6.4
2017-01-28T17:20:02.585Z,6.5
2017-01-28T17:25:03.113Z,6.4
2017-01-28T17:30:02.650Z,6.5
2017-01-28T17:35:03.353Z,6.4
2017-01-28T17:40:03.025Z,6.4
2017-01-28T17:45:02.812Z,6.4
2017-01-28T17:50:02.792Z,6.5
2017-01-28T17:55:02.611Z,6.5
2017-01-28T18:00:02.612Z,6.4
2017-01-28T18:05:03.393Z,6.4
2017-01-28T18:10:02.945Z,6.4
2017-01-28T18:15:02.405Z,6.4
2017-01-28T18:20:03.326Z,6.4
2017-01-28T18:25:03.116Z,6.4
2017-01-28T18:30:03.119Z,6.4
2017-01-28T18:35:02.898Z,6.4
2017-01-28T18:40:02.950Z,6.5
2017-01-28T18:45:02.544Z,6.5
2017-01-28T18:50:03.180Z,6.5
2017-01-28T18:55:02.826Z,6.5
2017-01-28T19:00:02.671Z,6.5
2017-01-28T19:05:03.385Z,6.5
2017-01-28T19:10:03.054Z,6.6
2017-01-28T19:15:02.781Z,6.5
2017-01-28T19:20:02.670Z,6.5
2017-01-28T19:25:03.333Z,6.5
2017-01-28T19:30:03.298Z,6.5
2017-01-28T19:35:03.197Z,6.5
2017-01-28T19:40:02.864Z,6.5
2017-01-28T19:45:02.560Z,6.5
2017-01-28T19:50:03.432Z,6.5
2017-01-28T19:55:03.046Z,6.5
2017-01-28T20:00:02.901Z,6.5
2017-01-28T20:05:02.579Z,6.5
2017-01-28T20:10:03.207Z,6.5
2017-01-28T20:15:02.908Z,6.5
2017-01-28T20:20:02.653Z,6.5
2017-01-28T20:25:03.182Z,6.5
2017-01-28T20:30:02.902Z,6.5
2017-01-28T20:35:02.593Z,6.5
2017-01-28T20:40:02.614Z,6.5
2017-01-28T20:45:03.445Z,6.4
2017-01-28T20:50:03.152Z,6.5
2017-01-28T20:55:03.006Z,6.4
2017-01-28T21:00:02.899Z,6.4
2017-01-28T21:05:02.519Z,6.4
2017-01-28T21:10:03.129Z,6.4
2017-01-28T21:15:02.799Z,6.1
2017-01-28T21:20:02.550Z,6.0
2017-01-28T21:25:02.505Z,6.1
2017-01-28T21:30:02.471Z,6.0
2017-01-28T21:35:03.157Z,6.0
2017-01-28T21:40:02.883Z,6.0
2017-01-28T21:45:02.574Z,5.9
2017-01-28T21:50:03.285Z,5.9
2017-01-28T21:55:02.974Z,5.8
2017-01-28T22:00:02.819Z,5.8
2017-01-28T22:05:02.908Z,5.5
2017-01-28T22:10:02.580Z,5.5
2017-01-28T22:15:03.215Z,5.5
2017-01-28T22:20:02.926Z,5.5
2017-01-28T22:25:02.624Z,5.5
2017-01-28T22:30:03.383Z,5.5
2017-01-28T22:35:03.220Z,5.5
2017-01-28T22:40:03.015Z,5.4
2017-01-28T22:45:02.696Z,5.4
2017-01-28T22:50:02.494Z,5.4
2017-01-28T22:55:03.223Z,5.3
2017-01-28T23:00:03.054Z,5.4
2017-01-28T23:05:02.900Z,5.3
2017-01-28T23:10:02.721Z,5.3
2017-01-28T23:15:03.389Z,5.4
2017-01-28T23:20:02.963Z,5.3
2017-01-28T23:25:02.845Z,5.3
2017-01-28T23:30:02.563Z,5.3
2017-01-28T23:35:03.277Z,5.0
2017-01-28T23:40:02.872Z,5.0
2017-01-28T23:45:02.781Z,5.0
2017-01-28T23:50:03.377Z,5.0
2017-01-28T23:55:10.024Z,5.0
